Aérodrome :
LOGIN :

S'inscrire | Disclaimer

   EN    FR    IT 

 










Légende :    VFR   VFR Marginal   IFR   IFR Intensif   IFR Très Intensif
Visi : 
Plafond : 
>= 8 km
>= 3000ft
5 à 8 km
1000 à 3000 ft
1500m à 5 km
500 à 1000 ft
800 à 1500m
200 à 500 ft
< 800m
< 200 ft
Symboles :   Orages  Brouillard  Fortes neiges  Fortes précipitations  Vent > 20 kt
SIGMETs :   Divers  Orages  Givrage  Turbulence  Onde Orograph.  Cendres Volcan.






- Altitude de l'aérodrome : 231 ft
- Code IATA : WTN


EGXW - RAF Waddington

DERNIER METAR :
  • 151550Z 06011KT 9999 BKN018 BKN032 19/14 Q1016 TEMPO BKN012 RMK WHT TEMPO GRN

METARs EXPIRÉS :
  • 151450Z 05010KT 9999 SCT020 BKN032 18/15 Q1016 TEMPO BKN012 RMK WHT TEMPO GRN
  • 151350Z 05010KT 9999 SCT016 BKN021 20/14 Q1016 TEMPO BKN012 RMK WHT TEMPO GRN

TAF TAF EGXW
Valide du 15 à 15h jusqu'au 16 à 09h UTC


151333Z 1515/1609 04011KT 9999 BKN012
TEMPO 1515/1517 BKN018
BECMG 1520/1522 BKN004
PROB30 1522/1607 3000 -RADZ BKN001



MET'MAP, la Météo Aéronautique d'un coup d'oeil ! - Copyright ORBIFLY Décembre 2007 - Disclaimer

ORBIFLY MET'MAP TEAM :

Programmation & Développement : Alexandra Zaïnal
Sur une idée originale de : Baudouin d'Aumeries
Assistance à la programmation : Marc-Olivier Méhu
Soutien technique & logistique : Manuel Goepfert

Contact : metmap@orbifly.com




SOURCES & CREDITS :

   NOAA